Time;durP1;ratioP1;P1;durP2;ratioP2;P2;SDS_P1;SDS_P2;PMS_P1;PMS_P2;Temp;Humidity;BMP_temperature;BMP_pressure;BME280_temperature;BME280_humidity;BME280_pressure;Samples;Min_cycle;Max_cycle;Signal;HPM_P1;HPM_P2
2022/02/15 00:01:22;;;;;;;17.83;12.93;;;;;;;;;;10243159;28;20088;-65
2022/02/15 00:06:20;;;;;;;21.15;13.60;;;;;;;;;;10244584;28;20507;-66
2022/02/15 00:11:19;;;;;;;36.95;22.33;;;;;;;;;;10249747;28;20072;-66
2022/02/15 00:16:17;;;;;;;11.18;10.00;;;;;;;;;;10247845;28;20084;-66
2022/02/15 00:21:19;;;;;;;11.60;9.15;;;;;;;;;;10248595;28;20052;-66
2022/02/15 00:26:19;;;;;;;37.67;20.95;;;;;;;;;;10245993;28;20439;-65
2022/02/15 00:31:17;;;;;;;38.53;22.50;;;;;;;;;;10245381;28;20061;-65
2022/02/15 00:36:16;;;;;;;17.45;12.98;;;;;;;;;;10240935;28;20061;-64
2022/02/15 00:41:16;;;;;;;12.52;9.50;;;;;;;;;;10244659;28;20073;-66
2022/02/15 00:46:14;;;;;;;11.27;8.32;;;;;;;;;;10240197;28;20080;-65
2022/02/15 00:51:12;;;;;;;24.67;16.92;;;;;;;;;;10242381;28;20061;-65
2022/02/15 00:56:11;;;;;;;41.53;23.63;;;;;;;;;;10246306;28;20076;-65
2022/02/15 01:01:10;;;;;;;75.57;39.28;;;;;;;;;;10240029;28;20060;-64
2022/02/15 01:06:10;;;;;;;39.53;21.65;;;;;;;;;;10241944;28;20455;-65
2022/02/15 01:11:09;;;;;;;32.13;21.55;;;;;;;;;;10251616;28;20105;-64
2022/02/15 01:16:09;;;;;;;30.15;18.38;;;;;;;;;;10250619;28;20073;-64
2022/02/15 01:21:08;;;;;;;34.15;19.38;;;;;;;;;;10252215;28;20064;-65
2022/02/15 01:26:07;;;;;;;34.03;21.42;;;;;;;;;;10250625;28;20485;-65
2022/02/15 01:31:05;;;;;;;21.33;13.90;;;;;;;;;;10246292;28;20498;-66
2022/02/15 01:36:04;;;;;;;14.40;10.27;;;;;;;;;;10252700;28;20081;-66
2022/02/15 01:41:05;;;;;;;14.40;9.15;;;;;;;;;;10247888;28;20468;-65
2022/02/15 01:46:04;;;;;;;18.10;11.27;;;;;;;;;;10252486;28;20083;-66
2022/02/15 01:51:02;;;;;;;14.20;11.07;;;;;;;;;;10244913;28;20072;-64
2022/02/15 01:56:01;;;;;;;17.27;10.57;;;;;;;;;;10254199;28;20048;-66
2022/02/15 02:01:05;;;;;;;16.70;10.63;;;;;;;;;;10243392;28;20060;-66
2022/02/15 02:06:10;;;;;;;12.68;9.55;;;;;;;;;;10246923;28;20080;-65
2022/02/15 02:11:08;;;;;;;14.35;10.27;;;;;;;;;;10250727;28;20038;-65
2022/02/15 02:16:15;;;;;;;23.33;15.57;;;;;;;;;;10245155;28;20076;-66
2022/02/15 02:21:15;;;;;;;16.45;11.63;;;;;;;;;;10256233;28;20076;-65
2022/02/15 02:26:13;;;;;;;14.70;10.38;;;;;;;;;;10244700;28;20072;-65
2022/02/15 02:31:13;;;;;;;15.63;10.93;;;;;;;;;;10254860;28;20080;-65
2022/02/15 02:36:26;;;;;;;13.85;10.63;;;;;;;;;;10258176;28;20509;-65
2022/02/15 02:41:24;;;;;;;13.93;9.55;;;;;;;;;;10245012;28;20555;-64
2022/02/15 02:46:23;;;;;;;19.52;12.32;;;;;;;;;;10246239;28;20077;-64
2022/02/15 02:51:21;;;;;;;28.35;16.42;;;;;;;;;;10249842;28;20037;-65
2022/02/15 02:56:21;;;;;;;27.73;15.18;;;;;;;;;;10245293;28;20077;-65
2022/02/15 03:01:21;;;;;;;30.48;17.75;;;;;;;;;;10249523;28;20167;-63
2022/02/15 03:06:21;;;;;;;18.75;12.43;;;;;;;;;;10248517;28;20076;-64
2022/02/15 03:11:22;;;;;;;20.00;12.73;;;;;;;;;;10256571;28;20053;-66
2022/02/15 03:16:23;;;;;;;25.05;16.50;;;;;;;;;;10240463;28;20463;-65
2022/02/15 03:21:24;;;;;;;53.70;33.38;;;;;;;;;;10242694;28;20141;-65
2022/02/15 03:26:25;;;;;;;36.13;24.27;;;;;;;;;;10242422;28;20084;-65
2022/02/15 03:31:23;;;;;;;34.45;23.23;;;;;;;;;;10241976;28;20533;-65
2022/02/15 03:36:28;;;;;;;24.03;16.77;;;;;;;;;;10253834;28;20081;-65
2022/02/15 03:46:55;;;;;;;13.80;11.02;;;;;;;;;;10243340;28;20088;-65
2022/02/15 03:52:00;;;;;;;;;;;;;;;;;;10248293;28;20065;-65
2022/02/15 03:57:00;;;;;;;25.38;16.58;;;;;;;;;;10243336;28;19921;-66
2022/02/15 04:02:00;;;;;;;14.50;11.10;;;;;;;;;;10241078;28;20048;-66
2022/02/15 04:07:00;;;;;;;16.23;11.50;;;;;;;;;;10240030;28;20077;-65
2022/02/15 04:12:02;;;;;;;18.27;16.38;;;;;;;;;;10246017;28;20046;-65
2022/02/15 04:17:07;;;;;;;19.75;14.15;;;;;;;;;;10241016;28;20098;-66
2022/02/15 04:22:08;;;;;;;12.45;10.45;;;;;;;;;;10245547;28;20080;-66
2022/02/15 04:27:11;;;;;;;14.77;9.93;;;;;;;;;;10239819;28;20089;-66
2022/02/15 04:32:10;;;;;;;13.43;10.27;;;;;;;;;;10245921;28;20522;-66
2022/02/15 04:37:09;;;;;;;28.60;18.00;;;;;;;;;;10237703;28;20099;-66
2022/02/15 04:42:09;;;;;;;14.95;12.32;;;;;;;;;;10242479;28;20060;-66
2022/02/15 04:47:11;;;;;;;11.25;9.95;;;;;;;;;;10247156;28;20100;-66
2022/02/15 04:52:09;;;;;;;12.65;10.90;;;;;;;;;;10251639;28;20065;-66
2022/02/15 04:57:09;;;;;;;14.50;11.13;;;;;;;;;;10259107;28;20485;-66
2022/02/15 05:02:14;;;;;;;13.52;10.77;;;;;;;;;;10244099;28;20053;-67
2022/02/15 05:07:12;;;;;;;15.25;11.65;;;;;;;;;;10249033;28;20503;-66
2022/02/15 05:12:12;;;;;;;32.97;21.05;;;;;;;;;;10247735;28;20073;-66
2022/02/15 05:17:11;;;;;;;59.50;36.88;;;;;;;;;;10246576;28;20077;-67
2022/02/15 05:22:12;;;;;;;81.80;54.28;;;;;;;;;;10250678;28;20498;-66
2022/02/15 05:27:19;;;;;;;29.73;20.60;;;;;;;;;;10247501;28;20077;-66
2022/02/15 05:32:24;;;;;;;17.13;11.38;;;;;;;;;;10250206;28;20510;-66
2022/02/15 05:37:27;;;;;;;14.02;11.38;;;;;;;;;;10258218;28;20077;-65
2022/02/15 05:42:28;;;;;;;19.17;12.30;;;;;;;;;;10266563;28;20517;-66
2022/02/15 05:47:26;;;;;;;21.38;14.63;;;;;;;;;;10248625;28;20470;-66
2022/02/15 05:52:27;;;;;;;17.65;11.02;;;;;;;;;;10246129;28;20073;-66
2022/02/15 05:57:28;;;;;;;15.07;10.02;;;;;;;;;;10251429;28;20187;-67
2022/02/15 06:02:33;;;;;;;24.15;12.63;;;;;;;;;;10253187;28;20081;-64
2022/02/15 06:07:37;;;;;;;11.65;10.00;;;;;;;;;;10248863;28;20065;-65
2022/02/15 06:12:44;;;;;;;41.35;25.90;;;;;;;;;;10247562;28;20081;-66
2022/02/15 06:17:43;;;;;;;34.05;22.50;;;;;;;;;;10246924;28;20068;-66
2022/02/15 06:22:43;;;;;;;20.70;13.43;;;;;;;;;;10255830;28;20491;-65
2022/02/15 06:27:41;;;;;;;16.20;12.25;;;;;;;;;;10277460;28;20076;-65
2022/02/15 06:33:05;;;;;;;21.83;14.07;;;;;;;;;;10256979;28;20077;-65
2022/02/15 06:38:06;;;;;;;43.10;28.02;;;;;;;;;;10247075;28;20056;-65
2022/02/15 06:43:05;;;;;;;23.40;16.42;;;;;;;;;;10246649;28;20049;-64
2022/02/15 06:48:09;;;;;;;14.98;11.98;;;;;;;;;;10243907;28;20088;-64
2022/02/15 06:53:10;;;;;;;74.80;47.28;;;;;;;;;;10253105;28;20494;-66
2022/02/15 06:58:39;;;;;;;77.05;45.75;;;;;;;;;;10260107;28;20076;-65
2022/02/15 07:03:40;;;;;;;82.55;49.83;;;;;;;;;;10253427;28;20072;-65
2022/02/15 07:08:40;;;;;;;75.57;44.95;;;;;;;;;;10246579;28;20107;-64
2022/02/15 07:13:38;;;;;;;77.25;56.13;;;;;;;;;;10240854;28;20091;-64
2022/02/15 07:18:37;;;;;;;62.67;37.85;;;;;;;;;;10241948;28;20064;-64
2022/02/15 07:23:59;;;;;;;124.38;75.13;;;;;;;;;;10237482;28;20088;-64
2022/02/15 07:29:00;;;;;;;38.53;27.02;;;;;;;;;;10242867;28;20079;-67
2022/02/15 07:34:03;;;;;;;138.90;74.03;;;;;;;;;;10239150;28;20081;-64
2022/02/15 07:39:08;;;;;;;68.47;43.20;;;;;;;;;;10242628;28;20460;-64
2022/02/15 07:44:07;;;;;;;96.22;60.78;;;;;;;;;;10245499;28;20115;-64
2022/02/15 07:49:14;;;;;;;89.93;53.22;;;;;;;;;;10245659;28;20097;-66
2022/02/15 07:54:13;;;;;;;192.75;120.55;;;;;;;;;;10248330;28;20033;-64
2022/02/15 07:59:11;;;;;;;82.78;48.65;;;;;;;;;;10245787;28;20065;-65
2022/02/15 08:04:13;;;;;;;99.80;64.53;;;;;;;;;;10250880;28;20065;-65
2022/02/15 08:09:21;;;;;;;80.78;50.00;;;;;;;;;;10247708;28;20089;-65
2022/02/15 08:14:20;;;;;;;85.55;48.58;;;;;;;;;;10257560;28;20075;-65
2022/02/15 08:19:23;;;;;;;81.63;49.08;;;;;;;;;;10246523;28;20476;-64
2022/02/15 08:24:23;;;;;;;70.82;45.65;;;;;;;;;;10243035;28;20392;-64
2022/02/15 08:29:21;;;;;;;80.65;52.38;;;;;;;;;;10243237;28;20080;-65
2022/02/15 08:34:19;;;;;;;59.78;41.50;;;;;;;;;;10243249;28;20641;-65
2022/02/15 08:39:18;;;;;;;64.40;40.17;;;;;;;;;;10238855;28;20080;-66
2022/02/15 08:44:19;;;;;;;71.30;47.15;;;;;;;;;;10241918;28;20064;-66
2022/02/15 08:49:17;;;;;;;86.35;51.05;;;;;;;;;;10240274;28;20073;-65
2022/02/15 08:54:16;;;;;;;78.60;50.50;;;;;;;;;;10243407;28;20072;-65
2022/02/15 08:59:15;;;;;;;74.82;50.45;;;;;;;;;;10240070;28;20503;-65
2022/02/15 09:04:15;;;;;;;72.75;45.72;;;;;;;;;;10240546;28;20092;-66
2022/02/15 09:09:14;;;;;;;93.78;53.15;;;;;;;;;;10240865;28;20080;-65
2022/02/15 09:14:12;;;;;;;81.90;48.10;;;;;;;;;;10244232;28;20052;-65
2022/02/15 09:19:10;;;;;;;76.35;46.45;;;;;;;;;;10241521;28;20057;-65
2022/02/15 09:24:10;;;;;;;70.70;50.88;;;;;;;;;;10241596;28;20096;-66
2022/02/15 09:29:09;;;;;;;82.80;47.78;;;;;;;;;;10247910;28;20077;-65
2022/02/15 09:34:08;;;;;;;66.72;44.90;;;;;;;;;;10251656;28;20041;-65
2022/02/15 09:39:07;;;;;;;69.25;39.75;;;;;;;;;;10253580;28;20034;-65
2022/02/15 09:44:08;;;;;;;59.00;39.38;;;;;;;;;;10261383;28;20499;-65
2022/02/15 09:49:48;;;;;;;58.58;35.97;;;;;;;;;;10258747;28;20459;-65
2022/02/15 09:54:27;;;;;;;56.85;39.28;;;;;;;;;;10251140;28;20068;-66
2022/02/15 09:59:26;;;;;;;55.40;34.85;;;;;;;;;;10245710;28;20505;-65
2022/02/15 10:04:32;;;;;;;46.08;30.92;;;;;;;;;;10246754;28;20495;-64
2022/02/15 10:09:31;;;;;;;62.80;41.85;;;;;;;;;;10247130;28;20495;-65
2022/02/15 10:14:31;;;;;;;47.38;33.92;;;;;;;;;;10247474;28;20072;-66
2022/02/15 10:19:30;;;;;;;53.90;31.73;;;;;;;;;;10247744;28;20072;-65
2022/02/15 10:24:31;;;;;;;47.15;30.52;;;;;;;;;;10247596;28;20065;-65
2022/02/15 10:29:32;;;;;;;40.28;26.88;;;;;;;;;;10246180;28;20084;-65
2022/02/15 10:34:30;;;;;;;31.50;23.70;;;;;;;;;;10246335;28;20073;-65
2022/02/15 10:39:35;;;;;;;29.83;16.63;;;;;;;;;;10246313;28;20451;-65
2022/02/15 10:44:47;;;;;;;21.45;15.93;;;;;;;;;;10248279;28;20528;-65
2022/02/15 10:49:46;;;;;;;26.98;20.58;;;;;;;;;;10249516;28;20490;-64
2022/02/15 10:54:44;;;;;;;18.38;15.20;;;;;;;;;;10248210;28;20073;-65
2022/02/15 10:59:44;;;;;;;84.07;57.60;;;;;;;;;;10249750;28;20113;-65
2022/02/15 11:04:43;;;;;;;19.05;15.38;;;;;;;;;;10250307;28;20045;-65
2022/02/15 11:09:44;;;;;;;15.95;11.75;;;;;;;;;;10243121;28;20076;-65
2022/02/15 11:14:49;;;;;;;18.30;12.43;;;;;;;;;;10246487;28;20466;-66
2022/02/15 11:19:47;;;;;;;;;;;;;;;;;;10247932;28;20502;-65
2022/02/15 11:24:45;;;;;;;15.70;12.65;;;;;;;;;;10244729;28;19928;-65
2022/02/15 11:29:53;;;;;;;15.10;11.77;;;;;;;;;;10242365;28;20080;-65
2022/02/15 11:34:51;;;;;;;15.38;9.73;;;;;;;;;;10241493;28;20143;-65
2022/02/15 11:40:05;;;;;;;15.85;12.93;;;;;;;;;;10241580;28;20521;-65
2022/02/15 11:45:13;;;;;;;16.63;12.02;;;;;;;;;;10242841;28;20483;-65
2022/02/15 11:50:12;;;;;;;16.20;14.60;;;;;;;;;;10245470;28;20079;-65
2022/02/15 11:55:12;;;;;;;19.67;14.32;;;;;;;;;;10243373;28;20045;-65
2022/02/15 12:00:12;;;;;;;22.85;16.75;;;;;;;;;;10243969;28;20049;-65
2022/02/15 12:05:16;;;;;;;18.02;13.02;;;;;;;;;;10244600;28;20068;-66
2022/02/15 12:10:15;;;;;;;18.67;13.98;;;;;;;;;;10247888;28;20071;-66
2022/02/15 12:15:15;;;;;;;15.10;11.60;;;;;;;;;;10247135;28;20072;-66
2022/02/15 12:20:16;;;;;;;17.73;13.82;;;;;;;;;;10245147;28;20076;-66
2022/02/15 12:25:15;;;;;;;16.42;11.98;;;;;;;;;;10247719;28;20068;-66
2022/02/15 12:30:15;;;;;;;22.58;14.73;;;;;;;;;;10246412;28;20491;-66
2022/02/15 12:35:14;;;;;;;18.42;12.20;;;;;;;;;;10247971;28;20045;-66
2022/02/15 12:40:14;;;;;;;17.35;12.50;;;;;;;;;;10240617;28;20064;-66
2022/02/15 12:45:12;;;;;;;18.20;12.98;;;;;;;;;;10240660;28;20283;-66
2022/02/15 12:50:15;;;;;;;12.98;9.85;;;;;;;;;;10240391;28;20493;-66
2022/02/15 12:55:14;;;;;;;18.15;12.65;;;;;;;;;;10242783;28;20080;-66
2022/02/15 13:00:16;;;;;;;20.20;12.07;;;;;;;;;;10242829;28;20080;-66
2022/02/15 13:05:21;;;;;;;27.45;21.27;;;;;;;;;;10249601;28;20069;-66
2022/02/15 13:10:22;;;;;;;31.20;23.70;;;;;;;;;;10251281;28;20556;-67
2022/02/15 13:15:22;;;;;;;18.17;15.00;;;;;;;;;;10250244;28;20041;-67
2022/02/15 13:20:23;;;;;;;28.95;18.20;;;;;;;;;;10250412;28;20546;-67
2022/02/15 13:25:21;;;;;;;17.30;13.00;;;;;;;;;;10251692;28;20438;-67
2022/02/15 13:30:24;;;;;;;22.80;15.02;;;;;;;;;;10254400;28;20450;-67
2022/02/15 13:35:24;;;;;;;20.42;14.13;;;;;;;;;;10255494;28;20068;-66
2022/02/15 13:40:22;;;;;;;12.35;9.30;;;;;;;;;;10254671;28;20075;-66
2022/02/15 13:45:20;;;;;;;13.57;11.15;;;;;;;;;;10252088;28;20077;-66
2022/02/15 13:50:18;;;;;;;20.80;15.23;;;;;;;;;;10253759;28;20076;-67
2022/02/15 13:55:18;;;;;;;14.82;9.52;;;;;;;;;;10251213;28;20466;-66
2022/02/15 14:00:18;;;;;;;12.10;9.77;;;;;;;;;;10248709;28;20184;-66
2022/02/15 14:05:17;;;;;;;14.98;11.57;;;;;;;;;;10244846;28;20072;-66
2022/02/15 14:10:17;;;;;;;12.70;9.98;;;;;;;;;;10244792;28;20065;-66
2022/02/15 14:15:17;;;;;;;16.58;10.73;;;;;;;;;;10245374;28;20522;-66
2022/02/15 14:20:21;;;;;;;16.98;13.18;;;;;;;;;;10245022;28;20061;-66
2022/02/15 14:25:21;;;;;;;22.00;17.50;;;;;;;;;;10245569;28;20037;-66
2022/02/15 14:30:22;;;;;;;22.58;16.27;;;;;;;;;;10245963;28;20065;-66
2022/02/15 14:35:22;;;;;;;22.30;12.45;;;;;;;;;;10246493;28;20066;-66
2022/02/15 14:40:22;;;;;;;13.85;9.65;;;;;;;;;;10246848;28;20073;-66
2022/02/15 14:45:21;;;;;;;19.23;14.85;;;;;;;;;;10246822;28;20073;-66
2022/02/15 14:50:19;;;;;;;24.27;13.82;;;;;;;;;;10247855;28;20073;-66
2022/02/15 14:55:23;;;;;;;26.67;18.83;;;;;;;;;;10247347;28;20064;-66
2022/02/15 15:00:24;;;;;;;17.63;14.20;;;;;;;;;;10249864;28;20068;-66
2022/02/15 15:05:22;;;;;;;37.33;26.40;;;;;;;;;;10249800;28;20072;-66
2022/02/15 15:10:20;;;;;;;39.55;29.70;;;;;;;;;;10251239;28;20099;-66
2022/02/15 15:15:19;;;;;;;47.28;34.95;;;;;;;;;;10247834;28;20083;-66
2022/02/15 15:20:18;;;;;;;41.30;29.85;;;;;;;;;;10248961;28;20063;-66
2022/02/15 15:25:17;;;;;;;51.08;35.67;;;;;;;;;;10248789;28;20466;-66
2022/02/15 15:30:17;;;;;;;68.82;59.67;;;;;;;;;;10248558;28;20061;-66
2022/02/15 15:35:15;;;;;;;53.92;40.35;;;;;;;;;;10242876;28;20069;-66
2022/02/15 15:40:18;;;;;;;60.22;37.65;;;;;;;;;;10244661;28;20301;-66
2022/02/15 15:45:16;;;;;;;86.38;52.63;;;;;;;;;;10244459;28;20079;-66
2022/02/15 15:50:18;;;;;;;117.03;72.43;;;;;;;;;;10244906;28;20079;-66
2022/02/15 15:55:18;;;;;;;48.88;35.95;;;;;;;;;;10246055;28;20075;-66
2022/02/15 16:00:16;;;;;;;29.48;24.13;;;;;;;;;;10245197;28;20068;-67
2022/02/15 16:05:34;;;;;;;32.75;23.00;;;;;;;;;;10246129;28;20493;-66
2022/02/15 16:10:34;;;;;;;77.68;49.38;;;;;;;;;;10244892;28;20066;-66
2022/02/15 16:15:34;;;;;;;110.65;62.47;;;;;;;;;;10248617;28;20064;-66
2022/02/15 16:20:36;;;;;;;102.43;58.47;;;;;;;;;;10248260;28;20494;-66
2022/02/15 16:25:36;;;;;;;67.10;35.50;;;;;;;;;;10246047;28;20098;-66
2022/02/15 16:30:38;;;;;;;108.68;74.70;;;;;;;;;;10244752;28;20048;-66
2022/02/15 16:35:36;;;;;;;52.42;30.95;;;;;;;;;;10242339;28;20081;-67
2022/02/15 16:40:37;;;;;;;51.85;30.25;;;;;;;;;;10246276;28;20056;-67
2022/02/15 16:45:36;;;;;;;68.15;42.40;;;;;;;;;;10241844;28;20482;-66
2022/02/15 16:50:34;;;;;;;110.15;61.35;;;;;;;;;;10241524;28;20459;-66
2022/02/15 16:55:32;;;;;;;160.98;86.85;;;;;;;;;;10241330;28;20069;-67
2022/02/15 17:00:32;;;;;;;152.05;87.43;;;;;;;;;;10242132;28;20072;-67
2022/02/15 17:05:30;;;;;;;104.40;61.20;;;;;;;;;;10241951;28;20085;-66
2022/02/15 17:10:29;;;;;;;150.02;103.43;;;;;;;;;;10242423;28;20077;-66
2022/02/15 17:15:27;;;;;;;74.28;50.42;;;;;;;;;;10241247;28;20085;-66
2022/02/15 17:20:27;;;;;;;46.55;34.00;;;;;;;;;;10243706;28;20143;-66
2022/02/15 17:25:25;;;;;;;42.97;28.13;;;;;;;;;;10243745;28;20076;-66
2022/02/15 17:30:23;;;;;;;42.78;31.33;;;;;;;;;;10244000;28;20076;-66
2022/02/15 17:35:22;;;;;;;69.72;46.72;;;;;;;;;;10247172;28;20485;-67
2022/02/15 17:40:21;;;;;;;54.50;38.25;;;;;;;;;;10242727;28;20080;-66
2022/02/15 17:45:20;;;;;;;80.43;48.85;;;;;;;;;;10245021;28;20076;-66
2022/02/15 17:50:19;;;;;;;142.15;84.30;;;;;;;;;;10250064;28;20072;-66
2022/02/15 17:55:19;;;;;;;95.57;62.55;;;;;;;;;;10255251;28;20084;-66
2022/02/15 18:00:21;;;;;;;63.13;50.08;;;;;;;;;;10256902;28;20076;-68
2022/02/15 18:05:22;;;;;;;58.92;50.85;;;;;;;;;;10255392;28;20061;-66
2022/02/15 18:10:23;;;;;;;48.00;32.45;;;;;;;;;;10251566;28;20080;-65
2022/02/15 18:15:23;;;;;;;60.90;44.90;;;;;;;;;;10247441;28;20096;-66
2022/02/15 18:20:21;;;;;;;38.28;26.60;;;;;;;;;;10247119;28;20517;-66
2022/02/15 18:25:19;;;;;;;67.65;46.53;;;;;;;;;;10255271;28;20044;-66
2022/02/15 18:30:18;;;;;;;40.05;29.67;;;;;;;;;;10247566;28;20061;-65
2022/02/15 18:35:18;;;;;;;29.75;23.35;;;;;;;;;;10256063;28;20463;-66
2022/02/15 18:40:18;;;;;;;43.08;31.25;;;;;;;;;;10255491;28;20069;-66
2022/02/15 18:45:17;;;;;;;49.47;35.17;;;;;;;;;;10247916;28;20371;-65
2022/02/15 18:50:15;;;;;;;84.13;60.55;;;;;;;;;;10247803;28;20065;-65
2022/02/15 18:55:20;;;;;;;163.38;112.72;;;;;;;;;;10263235;28;20083;-65
2022/02/15 19:00:18;;;;;;;295.13;185.38;;;;;;;;;;10261878;28;20060;-65
2022/02/15 19:05:17;;;;;;;84.38;52.85;;;;;;;;;;10259115;28;20071;-64
2022/02/15 19:10:15;;;;;;;93.95;41.20;;;;;;;;;;10252784;28;20060;-65
2022/02/15 19:15:16;;;;;;;104.80;44.67;;;;;;;;;;10256134;28;20072;-65
2022/02/15 19:20:14;;;;;;;128.00;55.88;;;;;;;;;;10252196;28;20068;-66
2022/02/15 19:25:14;;;;;;;130.65;55.67;;;;;;;;;;10258516;28;20068;-66
2022/02/15 19:30:15;;;;;;;123.65;53.80;;;;;;;;;;10251678;28;20080;-67
2022/02/15 19:35:14;;;;;;;52.55;27.13;;;;;;;;;;10248271;28;20080;-67
2022/02/15 19:40:12;;;;;;;39.05;21.88;;;;;;;;;;10256429;28;20091;-67
2022/02/15 19:45:11;;;;;;;22.88;16.13;;;;;;;;;;10249949;28;20073;-67
2022/02/15 19:50:11;;;;;;;42.63;27.40;;;;;;;;;;10258567;28;20079;-67
2022/02/15 19:55:09;;;;;;;34.53;20.40;;;;;;;;;;10260239;28;20067;-67
2022/02/15 20:00:11;;;;;;;21.50;15.10;;;;;;;;;;10260768;28;20064;-67
2022/02/15 20:05:11;;;;;;;20.65;13.82;;;;;;;;;;10261223;28;20076;-68
2022/02/15 20:10:09;;;;;;;27.75;18.40;;;;;;;;;;10249994;28;20072;-67
2022/02/15 20:15:10;;;;;;;15.02;10.80;;;;;;;;;;10248815;28;20084;-67
2022/02/15 20:20:09;;;;;;;14.48;10.55;;;;;;;;;;10260440;28;20112;-67
2022/02/15 20:25:10;;;;;;;16.55;12.68;;;;;;;;;;10249113;28;21361;-67
2022/02/15 20:30:10;;;;;;;25.30;17.88;;;;;;;;;;10243579;28;20109;-68
2022/02/15 20:35:10;;;;;;;34.58;23.60;;;;;;;;;;10249306;28;20445;-67
2022/02/15 20:40:12;;;;;;;77.80;42.85;;;;;;;;;;10245411;28;20056;-68
2022/02/15 20:45:13;;;;;;;23.08;11.90;;;;;;;;;;10244235;28;20081;-68
2022/02/15 20:50:15;;;;;;;47.20;34.72;;;;;;;;;;10247491;28;20490;-68
2022/02/15 20:55:17;;;;;;;38.55;19.98;;;;;;;;;;10245237;28;20076;-68
2022/02/15 21:00:18;;;;;;;62.58;26.73;;;;;;;;;;10237691;28;20075;-68
2022/02/15 21:05:19;;;;;;;50.25;26.20;;;;;;;;;;10247351;28;20120;-68
2022/02/15 21:10:22;;;;;;;48.45;25.90;;;;;;;;;;10241688;28;20096;-68
2022/02/15 21:15:22;;;;;;;35.83;19.17;;;;;;;;;;10240335;28;20073;-68
2022/02/15 21:20:21;;;;;;;40.17;25.88;;;;;;;;;;10240186;28;20069;-68
2022/02/15 21:25:19;;;;;;;27.63;18.42;;;;;;;;;;10251378;28;20540;-67
2022/02/15 21:30:19;;;;;;;25.83;17.08;;;;;;;;;;10253616;28;20076;-68
2022/02/15 21:35:18;;;;;;;14.23;10.45;;;;;;;;;;10253071;28;20462;-68
2022/02/15 21:40:17;;;;;;;16.52;11.05;;;;;;;;;;10256423;28;20060;-68
2022/02/15 21:45:16;;;;;;;21.80;11.35;;;;;;;;;;10252873;28;20073;-68
2022/02/15 21:50:15;;;;;;;19.58;13.10;;;;;;;;;;10252069;28;20065;-67
2022/02/15 21:55:14;;;;;;;13.50;11.05;;;;;;;;;;10252923;28;20076;-68
2022/02/15 22:00:16;;;;;;;25.80;16.13;;;;;;;;;;10257673;28;20068;-68
2022/02/15 22:05:18;;;;;;;13.10;10.80;;;;;;;;;;10252458;28;20068;-68
2022/02/15 22:10:16;;;;;;;17.17;13.15;;;;;;;;;;10251646;28;20065;-67
2022/02/15 22:15:15;;;;;;;16.95;12.13;;;;;;;;;;10248006;28;20444;-68
2022/02/15 22:20:15;;;;;;;23.55;18.17;;;;;;;;;;10246981;28;20068;-68
2022/02/15 22:25:14;;;;;;;16.98;13.45;;;;;;;;;;10247214;28;20039;-67
2022/02/15 22:30:14;;;;;;;16.77;12.77;;;;;;;;;;10247034;28;20466;-67
2022/02/15 22:35:12;;;;;;;18.15;12.90;;;;;;;;;;10248513;28;20167;-67
2022/02/15 22:40:12;;;;;;;25.35;13.85;;;;;;;;;;10250660;28;20075;-68
2022/02/15 22:45:12;;;;;;;23.25;17.45;;;;;;;;;;10247282;28;20087;-68
2022/02/15 22:50:10;;;;;;;29.85;20.42;;;;;;;;;;10248291;28;20536;-68
2022/02/15 22:55:10;;;;;;;19.95;15.23;;;;;;;;;;10247727;28;20073;-67
2022/02/15 23:00:11;;;;;;;22.38;16.55;;;;;;;;;;10247950;28;20042;-68
2022/02/15 23:20:59;;;;;;;28.33;18.55;;;;;;;;;;10247749;28;20041;-68
2022/02/15 23:25:57;;;;;;;45.67;24.23;;;;;;;;;;10249439;28;20030;-68
2022/02/15 23:30:56;;;;;;;24.98;17.50;;;;;;;;;;10246257;28;20080;-68
2022/02/15 23:35:54;;;;;;;43.17;25.58;;;;;;;;;;10255448;28;20083;-68
2022/02/15 23:40:53;;;;;;;22.33;14.00;;;;;;;;;;10249862;28;20496;-67
2022/02/15 23:45:52;;;;;;;29.65;20.35;;;;;;;;;;10246834;28;20042;-68
2022/02/15 23:50:50;;;;;;;23.23;16.40;;;;;;;;;;10257617;28;20053;-68
2022/02/15 23:55:49;;;;;;;52.03;32.13;;;;;;;;;;10246168;28;20084;-67
